createdAt,value
2018-08-28T00:00:56.365Z,2.53
2018-08-28T00:03:24.956Z,2.67
2018-08-28T00:05:52.485Z,4.43
2018-08-28T00:08:19.978Z,3.47
2018-08-28T00:10:47.498Z,3.70
2018-08-28T00:13:15.474Z,2.50
2018-08-28T00:15:42.978Z,2.80
2018-08-28T00:18:10.468Z,3.60
2018-08-28T00:20:38.511Z,3.33
2018-08-28T00:23:06.023Z,3.50
2018-08-28T00:25:33.551Z,3.50
2018-08-28T00:28:01.361Z,3.43
2018-08-28T00:30:28.879Z,3.47
2018-08-28T00:32:56.713Z,3.10
2018-08-28T00:35:25.536Z,2.67
2018-08-28T00:37:53.602Z,2.40
2018-08-28T00:40:21.548Z,2.57
2018-08-28T00:42:49.397Z,2.70
2018-08-28T00:45:16.931Z,3.80
2018-08-28T00:47:44.591Z,3.37
2018-08-28T00:50:12.417Z,3.17
2018-08-28T00:52:39.995Z,3.60
2018-08-28T00:55:07.538Z,3.60
2018-08-28T00:57:35.066Z,3.70
2018-08-28T01:00:02.623Z,3.90
2018-08-28T01:02:30.895Z,3.70
2018-08-28T01:04:58.404Z,3.33
2018-08-28T01:07:25.938Z,3.07
2018-08-28T01:09:53.456Z,3.30
2018-08-28T01:12:22.005Z,3.20
2018-08-28T01:14:49.527Z,3.23
2018-08-28T01:17:17.565Z,3.23
2018-08-28T01:19:45.482Z,3.50
2018-08-28T01:22:12.990Z,2.90
2018-08-28T01:24:40.903Z,2.97
2018-08-28T01:27:08.471Z,3.70
2018-08-28T01:29:36.633Z,3.20
2018-08-28T01:32:04.731Z,3.30
2018-08-28T01:34:32.239Z,3.37
2018-08-28T01:37:00.199Z,3.70
2018-08-28T01:39:27.743Z,3.27
2018-08-28T01:41:55.655Z,3.50
2018-08-28T01:44:24.135Z,3.53
2018-08-28T01:46:51.689Z,3.90
2018-08-28T01:49:20.377Z,4.20
2018-08-28T01:51:47.999Z,4.23
2018-08-28T01:54:15.551Z,4.13
2018-08-28T01:56:43.087Z,3.93
2018-08-28T01:59:10.818Z,3.90
2018-08-28T02:01:38.485Z,3.87
2018-08-28T02:04:07.266Z,3.30
2018-08-28T02:06:34.755Z,3.90
2018-08-28T02:09:02.362Z,3.70
2018-08-28T02:11:30.359Z,3.80
2018-08-28T02:13:57.839Z,3.83
2018-08-28T02:16:25.315Z,4.03
2018-08-28T02:18:52.888Z,4.00
2018-08-28T02:21:20.731Z,4.03
2018-08-28T02:23:48.619Z,3.67
2018-08-28T02:26:16.583Z,3.43
2018-08-28T02:28:45.008Z,3.87
2018-08-28T02:31:12.503Z,3.77
2018-08-28T02:33:40.600Z,3.90
2018-08-28T02:36:08.887Z,4.07
2018-08-28T02:38:37.089Z,4.10
2018-08-28T02:41:05.221Z,4.43
2018-08-28T02:43:33.168Z,3.70
2018-08-28T02:46:00.690Z,3.77
2018-08-28T02:48:28.722Z,3.90
2018-08-28T02:50:57.546Z,3.13
2018-08-28T02:53:25.090Z,3.77
2018-08-28T02:55:52.616Z,4.13
2018-08-28T02:58:20.113Z,3.70
2018-08-28T03:00:47.726Z,3.43
2018-08-28T03:10:02.328Z,3.80
2018-08-28T03:12:30.754Z,3.30
2018-08-28T03:14:58.318Z,3.40
2018-08-28T03:17:26.007Z,3.67
2018-08-28T03:19:53.909Z,4.33
2018-08-28T03:22:21.483Z,3.73
2018-08-28T03:24:49.469Z,3.67
2018-08-28T03:27:17.482Z,3.80
2018-08-28T03:29:46.482Z,3.50
2018-08-28T03:32:14.491Z,3.63
2018-08-28T03:34:42.020Z,3.30
2018-08-28T03:37:10.272Z,2.70
2018-08-28T03:39:37.807Z,3.07
2018-08-28T03:42:05.738Z,3.30
2018-08-28T03:44:33.931Z,4.10
2018-08-28T03:47:01.496Z,3.80
2018-08-28T03:49:29.565Z,4.07
2018-08-28T03:51:57.097Z,3.80
2018-08-28T03:54:24.672Z,3.40
2018-08-28T03:56:52.667Z,3.07
2018-08-28T03:59:20.178Z,2.80
2018-08-28T04:01:47.679Z,3.23
2018-08-28T04:04:15.449Z,2.90
2018-08-28T04:06:43.040Z,3.30
2018-08-28T04:09:10.955Z,3.27
2018-08-28T04:11:39.943Z,3.20
2018-08-28T04:14:07.477Z,2.97
2018-08-28T04:16:35.636Z,2.83
2018-08-28T04:19:03.192Z,3.30
2018-08-28T04:21:31.183Z,3.10
2018-08-28T04:23:59.087Z,3.20
2018-08-28T04:26:26.709Z,2.70
2018-08-28T04:28:54.623Z,2.97
2018-08-28T04:31:22.331Z,2.70
2018-08-28T04:33:49.872Z,3.33
2018-08-28T04:36:18.053Z,3.60
2018-08-28T04:38:45.555Z,2.73
2018-08-28T04:41:13.478Z,3.00
2018-08-28T04:43:41.507Z,2.53
2018-08-28T04:46:09.028Z,3.20
2018-08-28T04:48:36.880Z,3.03
2018-08-28T04:51:04.816Z,3.10
2018-08-28T04:53:32.321Z,3.20
2018-08-28T04:56:00.499Z,3.50
2018-08-28T04:58:28.000Z,3.80
2018-08-28T05:00:55.594Z,2.97
2018-08-28T05:03:24.594Z,2.90
2018-08-28T05:05:52.138Z,3.30
2018-08-28T05:08:19.683Z,3.90
2018-08-28T05:10:47.352Z,3.30
2018-08-28T05:13:15.843Z,2.70
2018-08-28T05:15:43.351Z,2.63
2018-08-28T05:18:10.891Z,3.80
2018-08-28T05:20:38.979Z,3.90
2018-08-28T05:23:06.984Z,3.30
2018-08-28T05:25:34.568Z,3.20
2018-08-28T05:28:02.547Z,3.33
2018-08-28T05:30:30.168Z,3.60
2018-08-28T05:32:57.659Z,3.83
2018-08-28T05:35:25.200Z,3.30
2018-08-28T05:37:53.333Z,3.30
2018-08-28T05:40:20.896Z,3.47
2018-08-28T05:42:48.844Z,3.57
2018-08-28T05:45:16.377Z,4.03
2018-08-28T05:47:43.904Z,3.70
2018-08-28T05:50:11.852Z,3.90
2018-08-28T05:52:39.356Z,4.00
2018-08-28T05:55:06.915Z,4.27
2018-08-28T05:57:34.836Z,4.17
2018-08-28T06:00:02.389Z,4.37
2018-08-28T06:02:30.243Z,4.10
2018-08-28T06:04:58.310Z,3.20
2018-08-28T06:07:26.008Z,3.77
2018-08-28T06:09:53.518Z,3.63
2018-08-28T06:12:21.475Z,4.63
2018-08-28T06:14:49.030Z,4.03
2018-08-28T06:17:16.864Z,3.63
2018-08-28T06:19:44.755Z,3.53
2018-08-28T06:22:12.624Z,3.87
2018-08-28T06:24:40.468Z,3.70
2018-08-28T06:27:07.992Z,3.20
2018-08-28T06:29:35.934Z,3.63
2018-08-28T06:32:03.823Z,3.07
2018-08-28T06:34:31.383Z,3.63
2018-08-28T06:36:59.531Z,3.57
2018-08-28T06:39:27.152Z,4.50
2018-08-28T06:41:55.028Z,4.00
2018-08-28T06:44:22.940Z,4.13
2018-08-28T06:46:50.471Z,4.60
2018-08-28T06:49:17.985Z,4.07
2018-08-28T06:51:45.572Z,4.00
2018-08-28T06:54:13.492Z,3.90
2018-08-28T06:56:41.135Z,3.63
2018-08-28T06:59:08.612Z,3.80
2018-08-28T07:01:36.180Z,3.10
2018-08-28T07:04:03.971Z,4.10
2018-08-28T07:06:31.672Z,3.90
2018-08-28T07:08:59.560Z,3.70
2018-08-28T07:11:28.092Z,3.77
2018-08-28T07:13:55.663Z,3.83
2018-08-28T07:16:24.472Z,4.23
2018-08-28T07:18:53.079Z,3.60
2018-08-28T07:21:20.955Z,3.77
2018-08-28T07:23:49.296Z,3.43
2018-08-28T07:26:16.832Z,4.30
2018-08-28T07:28:44.386Z,3.47
2018-08-28T07:31:11.938Z,3.43
2018-08-28T07:33:39.480Z,3.43
2018-08-28T07:36:07.128Z,3.30
2018-08-28T07:38:35.795Z,3.23
2018-08-28T07:41:03.684Z,3.80
2018-08-28T07:43:31.585Z,3.93
2018-08-28T07:45:59.135Z,4.10
2018-08-28T07:48:26.789Z,3.77
2018-08-28T07:50:54.979Z,4.60
2018-08-28T07:53:22.560Z,4.47
2018-08-28T07:55:50.433Z,3.87
2018-08-28T07:58:18.012Z,4.20
2018-08-28T08:00:45.860Z,3.20
2018-08-28T08:03:14.109Z,3.63
2018-08-28T08:05:41.636Z,3.47
2018-08-28T08:08:09.250Z,3.27
2018-08-28T08:10:37.186Z,3.20
2018-08-28T08:13:05.276Z,4.23
2018-08-28T08:15:33.150Z,4.07
2018-08-28T08:18:00.686Z,3.60
2018-08-28T08:20:28.715Z,3.20
2018-08-28T08:22:56.249Z,4.00
2018-08-28T08:25:23.779Z,3.57
2018-08-28T08:27:51.369Z,3.80
2018-08-28T08:30:19.028Z,4.00
2018-08-28T08:32:46.936Z,3.70
2018-08-28T08:35:14.494Z,3.80
2018-08-28T08:37:42.390Z,3.83
2018-08-28T08:40:09.928Z,3.40
2018-08-28T08:42:38.091Z,3.13
2018-08-28T08:45:06.372Z,3.90
2018-08-28T08:47:33.883Z,4.30
2018-08-28T08:50:01.448Z,3.50
2018-08-28T08:52:29.004Z,3.70
2018-08-28T08:54:56.765Z,3.60
2018-08-28T08:57:24.431Z,2.97
2018-08-28T08:59:51.904Z,3.03
2018-08-28T09:02:19.449Z,2.93
2018-08-28T09:04:47.837Z,3.30
2018-08-28T09:07:15.636Z,3.20
2018-08-28T09:09:43.627Z,3.30
2018-08-28T09:12:12.102Z,2.80
2018-08-28T09:14:39.657Z,3.00
2018-08-28T09:17:07.654Z,2.70
2018-08-28T09:19:35.500Z,2.90
2018-08-28T09:22:03.568Z,2.97
2018-08-28T09:24:31.236Z,3.60
2018-08-28T09:27:00.492Z,3.47
2018-08-28T09:29:28.632Z,2.73
2018-08-28T09:31:56.668Z,2.50
2018-08-28T09:34:24.164Z,2.63
2018-08-28T09:36:52.596Z,2.90
2018-08-28T09:39:20.096Z,3.23
2018-08-28T09:41:47.643Z,3.17
2018-08-28T09:44:15.516Z,2.70
2018-08-28T09:46:43.024Z,2.83
2018-08-28T09:49:10.648Z,2.50
2018-08-28T09:51:38.176Z,2.70
2018-08-28T09:54:06.120Z,2.80
2018-08-28T09:56:34.147Z,2.70
2018-08-28T09:59:01.630Z,2.60
2018-08-28T10:01:34.972Z,3.47
2018-08-28T10:04:02.552Z,3.27
2018-08-28T10:06:30.172Z,3.07
2018-08-28T10:08:58.140Z,2.90
2018-08-28T10:11:26.216Z,3.40
2018-08-28T10:13:53.742Z,2.97
2018-08-28T10:16:21.828Z,3.40
2018-08-28T10:18:49.324Z,3.20
2018-08-28T10:21:17.268Z,3.00
2018-08-28T10:23:45.150Z,3.33
2018-08-28T10:26:13.124Z,2.90
2018-08-28T10:28:40.723Z,3.20
2018-08-28T10:31:08.966Z,3.50
2018-08-28T10:33:37.884Z,3.00
2018-08-28T10:36:05.536Z,2.80
2018-08-28T10:38:33.923Z,2.87
2018-08-28T10:41:01.472Z,3.10
2018-08-28T10:43:30.228Z,2.80
2018-08-28T10:45:57.888Z,2.80
2018-08-28T10:48:25.503Z,2.97
2018-08-28T10:50:53.096Z,3.10
2018-08-28T10:53:20.646Z,2.80
2018-08-28T10:55:48.524Z,2.60
2018-08-28T10:58:16.042Z,2.93
2018-08-28T11:00:43.698Z,2.70
2018-08-28T11:03:11.323Z,2.37
2018-08-28T11:05:39.758Z,2.83
2018-08-28T11:08:08.243Z,2.80
2018-08-28T11:10:35.769Z,2.77
2018-08-28T11:13:04.004Z,2.70
2018-08-28T11:15:31.604Z,2.70
2018-08-28T11:17:59.112Z,3.20
2018-08-28T11:20:28.651Z,2.77
2018-08-28T11:22:56.242Z,2.67
2018-08-28T11:25:24.186Z,3.10
2018-08-28T11:27:52.025Z,2.90
2018-08-28T11:30:19.683Z,2.80
2018-08-28T11:32:47.295Z,3.60
2018-08-28T11:35:15.544Z,3.20
2018-08-28T11:37:43.552Z,3.27
2018-08-28T11:40:11.163Z,3.30
2018-08-28T11:42:39.057Z,3.30
2018-08-28T11:45:07.168Z,3.53
2018-08-28T11:47:34.720Z,3.00
2018-08-28T11:50:02.325Z,3.33
2018-08-28T11:52:30.449Z,3.70
2018-08-28T11:54:58.482Z,3.10
2018-08-28T11:57:26.024Z,3.43
2018-08-28T11:59:54.270Z,3.23
2018-08-28T12:02:26.238Z,3.00
2018-08-28T12:04:54.148Z,3.30
2018-08-28T12:07:21.758Z,3.10
2018-08-28T12:09:49.751Z,3.13
2018-08-28T12:12:17.656Z,3.37
2018-08-28T12:14:45.722Z,3.00
2018-08-28T12:17:13.278Z,3.20
2018-08-28T12:19:40.825Z,2.73
2018-08-28T12:22:08.731Z,3.90
2018-08-28T12:24:37.109Z,3.10
2018-08-28T12:27:05.562Z,3.30
2018-08-28T12:29:33.109Z,3.93
2018-08-28T12:32:00.575Z,3.00
2018-08-28T12:34:28.695Z,3.50
2018-08-28T12:36:56.672Z,3.40
2018-08-28T12:39:24.102Z,3.20
2018-08-28T12:41:51.601Z,3.20
2018-08-28T12:44:19.946Z,3.23
2018-08-28T12:46:47.459Z,3.27
2018-08-28T12:49:15.666Z,3.23
2018-08-28T12:51:43.185Z,3.87
2018-08-28T12:54:10.684Z,3.30
2018-08-28T12:56:38.267Z,3.53
2018-08-28T12:59:05.800Z,3.17
2018-08-28T13:01:33.838Z,3.33
2018-08-28T13:04:01.899Z,3.30
2018-08-28T13:06:29.553Z,3.47
2018-08-28T13:08:57.631Z,2.87
2018-08-28T13:11:26.192Z,3.50
2018-08-28T13:13:53.708Z,3.30
2018-08-28T13:16:22.008Z,3.23
2018-08-28T13:18:49.496Z,2.90
2018-08-28T13:21:17.526Z,3.20
2018-08-28T13:23:45.216Z,3.60
2018-08-28T13:26:12.726Z,3.57
2018-08-28T13:28:40.800Z,3.20
2018-08-28T13:31:08.326Z,3.70
2018-08-28T13:33:36.267Z,3.03
2018-08-28T13:36:03.800Z,3.10
2018-08-28T13:38:31.760Z,4.00
2018-08-28T13:40:59.288Z,4.13
2018-08-28T13:43:27.315Z,4.43
2018-08-28T13:45:54.873Z,4.17
2018-08-28T13:48:23.207Z,4.00
2018-08-28T13:50:50.755Z,3.50
2018-08-28T13:53:18.369Z,4.23
2018-08-28T13:57:15.425Z,3.67
2018-08-28T13:59:43.305Z,3.83
2018-08-28T14:02:11.280Z,4.00
2018-08-28T14:04:38.776Z,3.60
2018-08-28T14:07:06.798Z,3.60
2018-08-28T14:09:35.124Z,3.20
2018-08-28T14:12:04.062Z,4.00
2018-08-28T14:16:01.347Z,4.00
2018-08-28T14:18:28.995Z,3.60
2018-08-28T14:20:57.161Z,3.80
2018-08-28T14:23:26.205Z,3.90
2018-08-28T14:25:54.996Z,3.40
2018-08-28T14:28:22.523Z,4.30
2018-08-28T14:30:50.115Z,3.63
2018-08-28T14:33:17.690Z,3.77
2018-08-28T14:35:45.363Z,4.10
2018-08-28T14:38:13.409Z,3.33
2018-08-28T14:40:41.573Z,4.23
2018-08-28T14:43:10.288Z,3.47
2018-08-28T14:45:38.439Z,3.60
2018-08-28T14:48:06.017Z,3.47
2018-08-28T14:50:33.591Z,3.80
2018-08-28T14:53:01.157Z,3.53
2018-08-28T14:55:29.159Z,3.40
2018-08-28T14:57:57.263Z,3.60
2018-08-28T15:00:24.808Z,7.90
2018-08-28T15:02:53.189Z,3.63
2018-08-28T15:05:20.741Z,3.60
2018-08-28T15:07:48.312Z,4.00
2018-08-28T15:10:16.002Z,3.93
2018-08-28T15:12:44.573Z,3.90
2018-08-28T15:15:12.815Z,3.00
2018-08-28T15:17:41.510Z,3.80
2018-08-28T15:20:09.098Z,4.20
2018-08-28T15:22:37.491Z,3.83
2018-08-28T15:25:05.687Z,4.17
2018-08-28T15:27:33.325Z,3.90
2018-08-28T15:30:00.868Z,3.83
2018-08-28T15:32:29.607Z,3.83
2018-08-28T15:34:57.686Z,3.70
2018-08-28T15:37:25.723Z,3.70
2018-08-28T15:39:53.374Z,3.63
2018-08-28T15:42:21.368Z,3.80
2018-08-28T15:44:48.867Z,3.80
2018-08-28T15:47:16.408Z,3.50
2018-08-28T15:49:44.003Z,3.87
2018-08-28T15:52:11.527Z,3.97
2018-08-28T15:54:40.219Z,4.00
2018-08-28T15:57:08.771Z,3.73
2018-08-28T15:59:40.235Z,4.03
2018-08-28T16:02:09.855Z,4.30
2018-08-28T16:04:37.492Z,4.20
2018-08-28T16:07:05.889Z,4.17
2018-08-28T16:09:33.427Z,4.77
2018-08-28T16:12:01.312Z,4.10
2018-08-28T16:14:28.824Z,4.63
2018-08-28T16:16:56.331Z,3.90
2018-08-28T16:19:24.562Z,4.43
2018-08-28T16:21:56.581Z,3.70
2018-08-28T16:24:24.111Z,4.27
2018-08-28T16:26:52.325Z,3.60
2018-08-28T16:29:19.908Z,4.27
2018-08-28T16:31:47.462Z,4.80
2018-08-28T16:34:15.089Z,4.47
2018-08-28T16:36:42.988Z,4.50
2018-08-28T16:39:10.687Z,4.40
2018-08-28T16:41:38.922Z,4.60
2018-08-28T16:44:07.245Z,4.40
2018-08-28T16:46:35.167Z,4.50
2018-08-28T16:49:02.714Z,3.73
2018-08-28T16:51:30.604Z,4.03
2018-08-28T16:53:58.824Z,3.87
2018-08-28T16:56:26.784Z,4.23
2018-08-28T16:58:54.770Z,4.27
2018-08-28T17:01:22.366Z,4.70
2018-08-28T17:03:49.936Z,4.13
2018-08-28T17:06:17.524Z,4.10
2018-08-28T17:08:45.044Z,3.57
2018-08-28T17:11:13.400Z,4.07
2018-08-28T17:13:41.809Z,3.30
2018-08-28T17:16:09.342Z,3.80
2018-08-28T17:18:36.956Z,3.57
2018-08-28T17:21:05.404Z,3.37
2018-08-28T17:23:32.972Z,3.93
2018-08-28T17:26:00.528Z,4.17
2018-08-28T17:28:28.344Z,3.90
2018-08-28T17:30:55.922Z,3.83
2018-08-28T17:33:23.517Z,4.30
2018-08-28T17:35:51.016Z,4.27
2018-08-28T17:38:19.180Z,3.17
2018-08-28T17:40:47.231Z,4.50
2018-08-28T17:43:15.179Z,3.93
2018-08-28T17:45:43.332Z,4.67
2018-08-28T17:48:11.260Z,3.70
2018-08-28T17:50:39.215Z,4.40
2018-08-28T17:53:06.774Z,4.23
2018-08-28T17:55:34.711Z,3.73
2018-08-28T17:58:02.816Z,3.90
2018-08-28T18:00:30.343Z,4.60
2018-08-28T18:02:57.927Z,4.00
2018-08-28T18:05:25.479Z,4.07
2018-08-28T18:07:53.090Z,3.80
2018-08-28T18:10:20.627Z,3.83
2018-08-28T18:12:48.777Z,3.63
2018-08-28T18:15:16.328Z,3.60
2018-08-28T18:17:43.841Z,3.17
2018-08-28T18:20:11.891Z,4.27
2018-08-28T18:22:39.929Z,3.50
2018-08-28T18:25:07.888Z,4.10
2018-08-28T18:27:35.405Z,4.07
2018-08-28T18:30:02.994Z,4.00
2018-08-28T18:32:30.825Z,3.20
2018-08-28T18:34:58.437Z,3.30
2018-08-28T18:37:26.496Z,3.53
2018-08-28T18:39:54.553Z,4.23
2018-08-28T18:42:22.728Z,3.87
2018-08-28T18:44:51.302Z,3.23
2018-08-28T18:47:19.156Z,3.80
2018-08-28T18:49:47.189Z,3.13
2018-08-28T18:52:15.262Z,4.33
2018-08-28T18:54:43.362Z,3.90
2018-08-28T18:57:10.908Z,3.90
2018-08-28T18:59:38.432Z,3.80
2018-08-28T19:02:05.984Z,4.27
2018-08-28T19:04:33.521Z,3.80
2018-08-28T19:07:01.776Z,3.80
2018-08-28T19:09:29.304Z,4.00
2018-08-28T19:11:57.450Z,3.80
2018-08-28T19:14:25.119Z,3.83
2018-08-28T19:16:52.800Z,3.70
2018-08-28T19:19:20.334Z,3.30
2018-08-28T19:21:48.174Z,3.60
2018-08-28T19:24:16.073Z,4.40
2018-08-28T19:26:44.161Z,7.00
2018-08-28T19:29:11.716Z,19.70
2018-08-28T19:31:39.344Z,11.20
2018-08-28T19:34:06.881Z,6.87
2018-08-28T19:36:34.800Z,5.67
2018-08-28T19:39:03.065Z,5.40
2018-08-28T19:41:30.717Z,5.27
2018-08-28T19:43:59.656Z,4.10
2018-08-28T19:46:27.515Z,4.10
2018-08-28T19:48:55.072Z,3.60
2018-08-28T19:51:23.208Z,4.30
2018-08-28T19:53:51.155Z,4.47
2018-08-28T19:56:18.745Z,4.30
2018-08-28T19:58:46.832Z,4.23
2018-08-28T20:01:14.503Z,5.80
2018-08-28T20:03:42.048Z,6.20
2018-08-28T20:06:09.705Z,4.90
2018-08-28T20:08:38.267Z,4.60
2018-08-28T20:11:06.301Z,3.97
2018-08-28T20:13:33.820Z,4.10
2018-08-28T20:16:02.018Z,4.87
2018-08-28T20:18:29.569Z,4.93
2018-08-28T20:20:57.812Z,4.90
2018-08-28T20:23:26.200Z,5.03
2018-08-28T20:25:54.382Z,3.90
2018-08-28T20:28:21.903Z,4.70
2018-08-28T20:30:49.441Z,4.57
2018-08-28T20:33:17.004Z,5.00
2018-08-28T20:35:44.681Z,4.37
2018-08-28T20:38:13.264Z,3.90
2018-08-28T20:40:42.000Z,4.20
2018-08-28T20:43:11.530Z,3.60
2018-08-28T20:45:39.105Z,4.70
2018-08-28T20:48:07.029Z,4.47
2018-08-28T20:50:34.608Z,4.70
2018-08-28T20:53:02.280Z,5.20
2018-08-28T20:55:30.213Z,5.20
2018-08-28T20:57:58.415Z,3.47
2018-08-28T21:00:28.060Z,3.30
2018-08-28T21:02:55.763Z,3.40
2018-08-28T21:05:27.737Z,4.03
2018-08-28T21:07:57.112Z,3.27
2018-08-28T21:10:24.713Z,3.93
2018-08-28T21:12:52.959Z,4.60
2018-08-28T21:15:21.281Z,4.17
2018-08-28T21:17:50.093Z,4.20
2018-08-28T21:20:18.376Z,4.10
2018-08-28T21:22:46.956Z,3.37
2018-08-28T21:25:15.020Z,3.40
2018-08-28T21:27:42.792Z,3.67
2018-08-28T21:30:10.827Z,5.33
2018-08-28T21:32:38.488Z,5.70
2018-08-28T21:35:06.891Z,4.97
2018-08-28T21:37:35.230Z,3.70
2018-08-28T21:40:04.291Z,4.23
2018-08-28T21:42:32.342Z,4.00
2018-08-28T21:45:00.478Z,4.53
2018-08-28T21:47:28.130Z,4.37
2018-08-28T21:49:55.737Z,3.63
2018-08-28T21:52:24.445Z,3.00
2018-08-28T21:54:51.979Z,2.93
2018-08-28T21:57:19.595Z,4.20
2018-08-28T21:59:47.298Z,3.70
2018-08-28T22:02:14.875Z,4.00
2018-08-28T22:04:43.979Z,4.13
2018-08-28T22:07:17.995Z,3.60
2018-08-28T22:09:45.848Z,4.50
2018-08-28T22:12:13.715Z,3.30
2018-08-28T22:14:42.024Z,4.00
2018-08-28T22:17:09.920Z,3.80
2018-08-28T22:19:38.352Z,3.90
2018-08-28T22:22:06.505Z,4.00
2018-08-28T22:24:34.117Z,3.50
2018-08-28T22:27:02.658Z,4.57
2018-08-28T22:29:30.755Z,3.80
2018-08-28T22:31:58.480Z,3.30
2018-08-28T22:34:26.362Z,3.43
2018-08-28T22:36:54.674Z,3.50
2018-08-28T22:39:23.171Z,4.70
2018-08-28T22:41:50.705Z,4.20
2018-08-28T22:44:19.131Z,3.93
2018-08-28T22:46:47.304Z,3.50
2018-08-28T22:49:15.377Z,3.80
2018-08-28T22:51:42.904Z,3.50
2018-08-28T22:54:10.397Z,3.40
2018-08-28T22:56:38.631Z,3.70
2018-08-28T22:59:07.669Z,4.50
2018-08-28T23:01:35.195Z,5.07
2018-08-28T23:04:02.722Z,3.83
2018-08-28T23:06:30.947Z,4.57
2018-08-28T23:08:58.495Z,3.50
2018-08-28T23:11:26.555Z,3.93
2018-08-28T23:13:54.392Z,3.63
2018-08-28T23:16:21.905Z,4.17
2018-08-28T23:18:49.453Z,2.80
2018-08-28T23:21:17.451Z,3.17
2018-08-28T23:23:46.203Z,3.90
2018-08-28T23:26:13.724Z,3.97
2018-08-28T23:28:41.355Z,3.93
2018-08-28T23:31:09.163Z,4.10
2018-08-28T23:33:37.163Z,4.03
2018-08-28T23:36:05.707Z,3.90
2018-08-28T23:38:34.838Z,4.40
2018-08-28T23:41:02.367Z,3.30
2018-08-28T23:43:30.312Z,4.50
2018-08-28T23:45:58.127Z,4.63
2018-08-28T23:48:26.063Z,4.37
2018-08-28T23:50:53.594Z,4.70
2018-08-28T23:53:21.106Z,3.40
2018-08-28T23:55:48.647Z,3.30
2018-08-28T23:58:16.163Z,3.40
